sensor_id;sensor_type;location;lat;lon;timestamp;P1;durP1;ratioP1;P2;durP2;ratioP2
11761;SDS011;5938;47.098;15.474;2022-09-09T00:00:25;3.93;;;1.53;;
11761;SDS011;5938;47.098;15.474;2022-09-09T00:04:32;1.57;;;1.43;;
11761;SDS011;5938;47.098;15.474;2022-09-09T00:13:16;1.97;;;1.30;;
11761;SDS011;5938;47.098;15.474;2022-09-09T00:17:29;1.40;;;1.30;;
11761;SDS011;5938;47.098;15.474;2022-09-09T00:21:38;1.97;;;1.77;;
11761;SDS011;5938;47.098;15.474;2022-09-09T00:25:47;3.80;;;1.67;;
11761;SDS011;5938;47.098;15.474;2022-09-09T00:29:58;1.87;;;1.13;;
11761;SDS011;5938;47.098;15.474;2022-09-09T00:34:18;5.63;;;1.87;;
11761;SDS011;5938;47.098;15.474;2022-09-09T00:38:24;1.43;;;1.33;;
11761;SDS011;5938;47.098;15.474;2022-09-09T00:42:36;4.47;;;1.97;;
11761;SDS011;5938;47.098;15.474;2022-09-09T00:46:49;4.07;;;1.70;;
11761;SDS011;5938;47.098;15.474;2022-09-09T00:51:03;1.87;;;1.50;;
11761;SDS011;5938;47.098;15.474;2022-09-09T00:55:17;1.80;;;1.50;;
11761;SDS011;5938;47.098;15.474;2022-09-09T00:59:28;2.70;;;1.43;;
11761;SDS011;5938;47.098;15.474;2022-09-09T01:03:41;7.60;;;1.57;;
11761;SDS011;5938;47.098;15.474;2022-09-09T01:07:50;2.97;;;1.80;;
11761;SDS011;5938;47.098;15.474;2022-09-09T01:12:00;1.80;;;1.67;;
11761;SDS011;5938;47.098;15.474;2022-09-09T01:16:11;1.53;;;1.40;;
11761;SDS011;5938;47.098;15.474;2022-09-09T01:20:17;1.40;;;1.30;;
11761;SDS011;5938;47.098;15.474;2022-09-09T01:24:26;1.87;;;1.30;;
11761;SDS011;5938;47.098;15.474;2022-09-09T01:28:38;1.90;;;1.80;;
11761;SDS011;5938;47.098;15.474;2022-09-09T01:32:43;1.50;;;1.40;;
11761;SDS011;5938;47.098;15.474;2022-09-09T01:36:47;2.07;;;1.63;;
11761;SDS011;5938;47.098;15.474;2022-09-09T01:40:54;3.70;;;2.03;;
11761;SDS011;5938;47.098;15.474;2022-09-09T01:45:01;2.00;;;1.27;;
11761;SDS011;5938;47.098;15.474;2022-09-09T01:49:05;3.03;;;1.57;;
11761;SDS011;5938;47.098;15.474;2022-09-09T01:53:12;6.37;;;1.57;;
11761;SDS011;5938;47.098;15.474;2022-09-09T01:57:18;6.07;;;2.30;;
11761;SDS011;5938;47.098;15.474;2022-09-09T02:01:28;1.93;;;1.67;;
11761;SDS011;5938;47.098;15.474;2022-09-09T02:05:45;2.13;;;1.43;;
11761;SDS011;5938;47.098;15.474;2022-09-09T02:09:58;4.57;;;1.73;;
11761;SDS011;5938;47.098;15.474;2022-09-09T02:14:06;2.20;;;1.70;;
11761;SDS011;5938;47.098;15.474;2022-09-09T02:18:15;2.07;;;1.40;;
11761;SDS011;5938;47.098;15.474;2022-09-09T02:22:24;3.20;;;1.60;;
11761;SDS011;5938;47.098;15.474;2022-09-09T02:26:30;2.50;;;1.43;;
11761;SDS011;5938;47.098;15.474;2022-09-09T02:30:35;3.40;;;1.70;;
11761;SDS011;5938;47.098;15.474;2022-09-09T02:34:43;2.13;;;2.03;;
11761;SDS011;5938;47.098;15.474;2022-09-09T02:38:50;1.90;;;1.80;;
11761;SDS011;5938;47.098;15.474;2022-09-09T02:42:55;3.73;;;1.80;;
11761;SDS011;5938;47.098;15.474;2022-09-09T02:47:03;3.83;;;1.50;;
11761;SDS011;5938;47.098;15.474;2022-09-09T02:51:22;2.23;;;1.67;;
11761;SDS011;5938;47.098;15.474;2022-09-09T02:55:33;2.10;;;1.70;;
11761;SDS011;5938;47.098;15.474;2022-09-09T02:59:41;3.83;;;1.77;;
11761;SDS011;5938;47.098;15.474;2022-09-09T03:03:46;3.93;;;1.57;;
11761;SDS011;5938;47.098;15.474;2022-09-09T03:07:51;1.90;;;1.67;;
11761;SDS011;5938;47.098;15.474;2022-09-09T03:11:54;2.27;;;1.80;;
11761;SDS011;5938;47.098;15.474;2022-09-09T03:15:57;1.70;;;1.60;;
11761;SDS011;5938;47.098;15.474;2022-09-09T03:20:01;5.17;;;2.43;;
11761;SDS011;5938;47.098;15.474;2022-09-09T03:24:06;2.90;;;1.70;;
11761;SDS011;5938;47.098;15.474;2022-09-09T03:28:10;2.40;;;1.90;;
11761;SDS011;5938;47.098;15.474;2022-09-09T03:32:14;2.70;;;1.47;;
11761;SDS011;5938;47.098;15.474;2022-09-09T03:36:18;4.23;;;1.80;;
11761;SDS011;5938;47.098;15.474;2022-09-09T03:40:23;2.17;;;1.60;;
11761;SDS011;5938;47.098;15.474;2022-09-09T03:44:27;2.00;;;1.80;;
11761;SDS011;5938;47.098;15.474;2022-09-09T03:48:30;2.40;;;2.10;;
11761;SDS011;5938;47.098;15.474;2022-09-09T03:52:34;6.53;;;2.90;;
11761;SDS011;5938;47.098;15.474;2022-09-09T03:56:39;2.20;;;1.80;;
11761;SDS011;5938;47.098;15.474;2022-09-09T04:00:43;3.40;;;1.97;;
11761;SDS011;5938;47.098;15.474;2022-09-09T04:04:46;2.80;;;2.30;;
11761;SDS011;5938;47.098;15.474;2022-09-09T04:08:50;2.40;;;1.80;;
11761;SDS011;5938;47.098;15.474;2022-09-09T04:12:55;2.83;;;1.77;;
11761;SDS011;5938;47.098;15.474;2022-09-09T04:16:58;4.40;;;2.10;;
11761;SDS011;5938;47.098;15.474;2022-09-09T04:21:02;2.97;;;2.40;;
11761;SDS011;5938;47.098;15.474;2022-09-09T04:25:07;2.00;;;1.80;;
11761;SDS011;5938;47.098;15.474;2022-09-09T04:29:12;3.17;;;1.77;;
11761;SDS011;5938;47.098;15.474;2022-09-09T04:33:16;2.13;;;1.50;;
11761;SDS011;5938;47.098;15.474;2022-09-09T04:37:19;6.13;;;2.80;;
11761;SDS011;5938;47.098;15.474;2022-09-09T04:41:23;2.23;;;2.03;;
11761;SDS011;5938;47.098;15.474;2022-09-09T04:45:27;3.57;;;2.57;;
11761;SDS011;5938;47.098;15.474;2022-09-09T04:49:31;4.23;;;2.20;;
11761;SDS011;5938;47.098;15.474;2022-09-09T04:53:35;2.13;;;1.90;;
11761;SDS011;5938;47.098;15.474;2022-09-09T04:57:39;4.17;;;2.77;;
11761;SDS011;5938;47.098;15.474;2022-09-09T05:01:45;2.37;;;2.17;;
11761;SDS011;5938;47.098;15.474;2022-09-09T05:05:49;3.17;;;2.20;;
11761;SDS011;5938;47.098;15.474;2022-09-09T05:09:52;6.63;;;1.73;;
11761;SDS011;5938;47.098;15.474;2022-09-09T05:13:56;2.10;;;2.00;;
11761;SDS011;5938;47.098;15.474;2022-09-09T05:18:00;2.50;;;1.70;;
11761;SDS011;5938;47.098;15.474;2022-09-09T05:22:04;2.83;;;2.30;;
11761;SDS011;5938;47.098;15.474;2022-09-09T05:26:09;2.27;;;2.07;;
11761;SDS011;5938;47.098;15.474;2022-09-09T05:30:18;2.63;;;2.43;;
11761;SDS011;5938;47.098;15.474;2022-09-09T05:34:23;4.30;;;2.50;;
11761;SDS011;5938;47.098;15.474;2022-09-09T05:38:26;4.60;;;2.30;;
11761;SDS011;5938;47.098;15.474;2022-09-09T05:42:30;4.57;;;2.97;;
11761;SDS011;5938;47.098;15.474;2022-09-09T05:46:34;2.47;;;2.27;;
11761;SDS011;5938;47.098;15.474;2022-09-09T05:50:38;4.20;;;3.00;;
11761;SDS011;5938;47.098;15.474;2022-09-09T05:54:42;4.30;;;2.17;;
11761;SDS011;5938;47.098;15.474;2022-09-09T05:58:45;2.40;;;2.10;;
11761;SDS011;5938;47.098;15.474;2022-09-09T06:02:50;2.93;;;2.73;;
11761;SDS011;5938;47.098;15.474;2022-09-09T06:06:56;4.57;;;2.73;;
11761;SDS011;5938;47.098;15.474;2022-09-09T06:11:00;3.00;;;2.23;;
11761;SDS011;5938;47.098;15.474;2022-09-09T06:15:05;2.10;;;1.90;;
11761;SDS011;5938;47.098;15.474;2022-09-09T06:19:10;4.80;;;3.17;;
11761;SDS011;5938;47.098;15.474;2022-09-09T06:23:15;5.40;;;2.23;;
11761;SDS011;5938;47.098;15.474;2022-09-09T06:27:18;3.90;;;2.47;;
11761;SDS011;5938;47.098;15.474;2022-09-09T06:31:23;4.23;;;2.03;;
11761;SDS011;5938;47.098;15.474;2022-09-09T06:35:31;2.40;;;1.97;;
11761;SDS011;5938;47.098;15.474;2022-09-09T06:39:36;3.13;;;2.10;;
11761;SDS011;5938;47.098;15.474;2022-09-09T06:43:39;3.13;;;1.93;;
11761;SDS011;5938;47.098;15.474;2022-09-09T06:47:43;2.47;;;2.27;;
11761;SDS011;5938;47.098;15.474;2022-09-09T06:51:46;2.50;;;2.30;;
11761;SDS011;5938;47.098;15.474;2022-09-09T06:55:52;5.83;;;2.20;;
11761;SDS011;5938;47.098;15.474;2022-09-09T06:59:56;2.97;;;2.67;;
11761;SDS011;5938;47.098;15.474;2022-09-09T07:03:59;2.33;;;2.13;;
11761;SDS011;5938;47.098;15.474;2022-09-09T07:08:05;2.60;;;2.07;;
11761;SDS011;5938;47.098;15.474;2022-09-09T07:12:09;9.80;;;3.00;;
11761;SDS011;5938;47.098;15.474;2022-09-09T07:16:15;3.13;;;2.57;;
11761;SDS011;5938;47.098;15.474;2022-09-09T07:20:20;4.90;;;3.50;;
11761;SDS011;5938;47.098;15.474;2022-09-09T07:24:23;3.33;;;2.30;;
11761;SDS011;5938;47.098;15.474;2022-09-09T07:28:33;2.87;;;2.67;;
11761;SDS011;5938;47.098;15.474;2022-09-09T07:32:36;3.40;;;2.90;;
11761;SDS011;5938;47.098;15.474;2022-09-09T07:36:40;4.73;;;3.10;;
11761;SDS011;5938;47.098;15.474;2022-09-09T07:40:44;5.13;;;3.53;;
11761;SDS011;5938;47.098;15.474;2022-09-09T07:44:49;3.30;;;3.00;;
11761;SDS011;5938;47.098;15.474;2022-09-09T07:48:56;3.60;;;2.60;;
11761;SDS011;5938;47.098;15.474;2022-09-09T07:52:59;3.87;;;3.20;;
11761;SDS011;5938;47.098;15.474;2022-09-09T07:57:03;6.60;;;2.80;;
11761;SDS011;5938;47.098;15.474;2022-09-09T08:01:09;3.43;;;3.13;;
11761;SDS011;5938;47.098;15.474;2022-09-09T08:05:14;3.10;;;2.90;;
11761;SDS011;5938;47.098;15.474;2022-09-09T08:09:18;4.57;;;3.00;;
11761;SDS011;5938;47.098;15.474;2022-09-09T08:13:22;3.30;;;3.00;;
11761;SDS011;5938;47.098;15.474;2022-09-09T08:17:26;5.43;;;3.30;;
11761;SDS011;5938;47.098;15.474;2022-09-09T08:21:30;4.00;;;2.90;;
11761;SDS011;5938;47.098;15.474;2022-09-09T08:25:34;5.73;;;2.80;;
11761;SDS011;5938;47.098;15.474;2022-09-09T08:29:37;4.07;;;3.60;;
11761;SDS011;5938;47.098;15.474;2022-09-09T08:33:42;3.30;;;2.70;;
11761;SDS011;5938;47.098;15.474;2022-09-09T08:37:47;3.30;;;3.00;;
11761;SDS011;5938;47.098;15.474;2022-09-09T08:46:25;2.77;;;2.57;;
11761;SDS011;5938;47.098;15.474;2022-09-09T08:50:37;3.30;;;2.77;;
11761;SDS011;5938;47.098;15.474;2022-09-09T08:54:42;3.60;;;3.30;;
11761;SDS011;5938;47.098;15.474;2022-09-09T08:58:53;5.83;;;3.03;;
11761;SDS011;5938;47.098;15.474;2022-09-09T09:03:00;3.70;;;3.40;;
11761;SDS011;5938;47.098;15.474;2022-09-09T09:07:18;3.60;;;3.27;;
11761;SDS011;5938;47.098;15.474;2022-09-09T09:11:36;3.37;;;3.13;;
11761;SDS011;5938;47.098;15.474;2022-09-09T09:15:42;3.50;;;3.20;;
11761;SDS011;5938;47.098;15.474;2022-09-09T09:19:49;3.60;;;2.93;;
11761;SDS011;5938;47.098;15.474;2022-09-09T09:23:55;3.27;;;2.97;;
11761;SDS011;5938;47.098;15.474;2022-09-09T09:28:01;3.23;;;2.93;;
11761;SDS011;5938;47.098;15.474;2022-09-09T09:32:07;4.30;;;2.83;;
11761;SDS011;5938;47.098;15.474;2022-09-09T09:36:15;3.17;;;2.87;;
11761;SDS011;5938;47.098;15.474;2022-09-09T09:40:20;2.53;;;2.30;;
11761;SDS011;5938;47.098;15.474;2022-09-09T09:44:25;2.67;;;2.47;;
11761;SDS011;5938;47.098;15.474;2022-09-09T09:48:30;3.30;;;2.60;;
11761;SDS011;5938;47.098;15.474;2022-09-09T09:52:33;3.10;;;2.40;;
11761;SDS011;5938;47.098;15.474;2022-09-09T09:56:39;3.90;;;2.50;;
11761;SDS011;5938;47.098;15.474;2022-09-09T10:00:47;2.40;;;2.30;;
11761;SDS011;5938;47.098;15.474;2022-09-09T10:05:00;3.80;;;2.60;;
11761;SDS011;5938;47.098;15.474;2022-09-09T10:09:17;3.40;;;2.30;;
11761;SDS011;5938;47.098;15.474;2022-09-09T10:13:27;3.70;;;2.50;;
11761;SDS011;5938;47.098;15.474;2022-09-09T10:17:44;1.97;;;1.80;;
11761;SDS011;5938;47.098;15.474;2022-09-09T10:22:00;2.00;;;1.90;;
11761;SDS011;5938;47.098;15.474;2022-09-09T10:26:12;4.40;;;2.03;;
11761;SDS011;5938;47.098;15.474;2022-09-09T10:30:30;2.40;;;2.20;;
11761;SDS011;5938;47.098;15.474;2022-09-09T10:34:51;1.70;;;1.60;;
11761;SDS011;5938;47.098;15.474;2022-09-09T10:38:59;1.70;;;1.50;;
11761;SDS011;5938;47.098;15.474;2022-09-09T10:43:09;3.97;;;2.00;;
11761;SDS011;5938;47.098;15.474;2022-09-09T10:47:27;2.37;;;1.50;;
11761;SDS011;5938;47.098;15.474;2022-09-09T10:51:44;2.03;;;1.67;;
11761;SDS011;5938;47.098;15.474;2022-09-09T10:55:56;2.00;;;1.27;;
11761;SDS011;5938;47.098;15.474;2022-09-09T11:00:04;1.83;;;1.73;;
11761;SDS011;5938;47.098;15.474;2022-09-09T11:04:19;4.77;;;2.10;;
11761;SDS011;5938;47.098;15.474;2022-09-09T11:08:26;2.13;;;1.20;;
11761;SDS011;5938;47.098;15.474;2022-09-09T11:12:31;2.03;;;1.40;;
11761;SDS011;5938;47.098;15.474;2022-09-09T11:16:42;2.50;;;1.67;;
11761;SDS011;5938;47.098;15.474;2022-09-09T11:20:53;1.97;;;1.70;;
11761;SDS011;5938;47.098;15.474;2022-09-09T11:25:01;2.50;;;1.50;;
11761;SDS011;5938;47.098;15.474;2022-09-09T11:29:16;2.20;;;1.97;;
11761;SDS011;5938;47.098;15.474;2022-09-09T11:38:21;2.53;;;1.90;;
11761;SDS011;5938;47.098;15.474;2022-09-09T11:42:28;2.33;;;1.73;;
11761;SDS011;5938;47.098;15.474;2022-09-09T11:46:32;2.97;;;2.50;;
11761;SDS011;5938;47.098;15.474;2022-09-09T11:50:39;2.30;;;2.10;;
11761;SDS011;5938;47.098;15.474;2022-09-09T11:54:47;2.50;;;2.30;;
11761;SDS011;5938;47.098;15.474;2022-09-09T11:58:59;2.57;;;2.00;;
11761;SDS011;5938;47.098;15.474;2022-09-09T12:03:05;3.00;;;1.97;;
11761;SDS011;5938;47.098;15.474;2022-09-09T12:07:22;3.33;;;2.30;;
11761;SDS011;5938;47.098;15.474;2022-09-09T12:11:32;2.30;;;1.93;;
11761;SDS011;5938;47.098;15.474;2022-09-09T12:15:36;2.53;;;2.33;;
11761;SDS011;5938;47.098;15.474;2022-09-09T12:19:59;2.00;;;1.87;;
11761;SDS011;5938;47.098;15.474;2022-09-09T12:24:10;3.40;;;2.07;;
11761;SDS011;5938;47.098;15.474;2022-09-09T12:28:17;1.50;;;1.40;;
11761;SDS011;5938;47.098;15.474;2022-09-09T12:32:23;2.07;;;1.43;;
11761;SDS011;5938;47.098;15.474;2022-09-09T12:36:28;1.80;;;1.70;;
11761;SDS011;5938;47.098;15.474;2022-09-09T12:40:35;2.30;;;1.67;;
11761;SDS011;5938;47.098;15.474;2022-09-09T12:44:39;1.60;;;1.50;;
11761;SDS011;5938;47.098;15.474;2022-09-09T12:48:53;1.87;;;1.30;;
11761;SDS011;5938;47.098;15.474;2022-09-09T12:52:57;2.03;;;1.50;;
11761;SDS011;5938;47.098;15.474;2022-09-09T12:57:03;2.13;;;1.30;;
11761;SDS011;5938;47.098;15.474;2022-09-09T13:01:18;1.20;;;1.10;;
11761;SDS011;5938;47.098;15.474;2022-09-09T13:05:25;1.53;;;1.43;;
11761;SDS011;5938;47.098;15.474;2022-09-09T13:09:29;2.17;;;1.60;;
11761;SDS011;5938;47.098;15.474;2022-09-09T13:13:34;2.37;;;1.40;;
11761;SDS011;5938;47.098;15.474;2022-09-09T13:17:40;3.03;;;1.57;;
11761;SDS011;5938;47.098;15.474;2022-09-09T13:21:44;1.60;;;1.37;;
11761;SDS011;5938;47.098;15.474;2022-09-09T13:25:54;2.40;;;1.67;;
11761;SDS011;5938;47.098;15.474;2022-09-09T13:29:58;1.77;;;1.67;;
11761;SDS011;5938;47.098;15.474;2022-09-09T13:34:11;1.47;;;1.37;;
11761;SDS011;5938;47.098;15.474;2022-09-09T13:38:15;2.17;;;1.47;;
11761;SDS011;5938;47.098;15.474;2022-09-09T13:42:23;1.60;;;1.50;;
11761;SDS011;5938;47.098;15.474;2022-09-09T13:46:31;2.80;;;2.00;;
11761;SDS011;5938;47.098;15.474;2022-09-09T13:50:37;1.63;;;1.20;;
11761;SDS011;5938;47.098;15.474;2022-09-09T13:54:41;1.53;;;1.37;;
11761;SDS011;5938;47.098;15.474;2022-09-09T13:58:44;3.97;;;1.70;;
11761;SDS011;5938;47.098;15.474;2022-09-09T14:02:47;3.90;;;1.70;;
11761;SDS011;5938;47.098;15.474;2022-09-09T14:06:52;1.57;;;1.43;;
11761;SDS011;5938;47.098;15.474;2022-09-09T14:10:57;3.70;;;2.37;;
11761;SDS011;5938;47.098;15.474;2022-09-09T14:15:00;4.10;;;3.63;;
11761;SDS011;5938;47.098;15.474;2022-09-09T14:19:04;1.97;;;1.87;;
11761;SDS011;5938;47.098;15.474;2022-09-09T14:23:11;2.23;;;2.03;;
11761;SDS011;5938;47.098;15.474;2022-09-09T14:27:14;2.00;;;1.80;;
11761;SDS011;5938;47.098;15.474;2022-09-09T14:31:18;1.77;;;1.67;;
11761;SDS011;5938;47.098;15.474;2022-09-09T14:35:22;2.13;;;1.93;;
11761;SDS011;5938;47.098;15.474;2022-09-09T14:39:27;3.03;;;2.83;;
11761;SDS011;5938;47.098;15.474;2022-09-09T14:43:30;2.97;;;2.30;;
11761;SDS011;5938;47.098;15.474;2022-09-09T14:47:34;3.77;;;3.10;;
11761;SDS011;5938;47.098;15.474;2022-09-09T14:51:39;4.43;;;3.20;;
11761;SDS011;5938;47.098;15.474;2022-09-09T14:55:44;3.90;;;2.90;;
11761;SDS011;5938;47.098;15.474;2022-09-09T14:59:48;3.13;;;2.83;;
11761;SDS011;5938;47.098;15.474;2022-09-09T15:03:52;3.40;;;3.10;;
11761;SDS011;5938;47.098;15.474;2022-09-09T15:07:57;4.13;;;3.73;;
11761;SDS011;5938;47.098;15.474;2022-09-09T15:12:02;3.83;;;3.53;;
11761;SDS011;5938;47.098;15.474;2022-09-09T15:16:06;3.10;;;2.90;;
11761;SDS011;5938;47.098;15.474;2022-09-09T15:20:11;3.90;;;3.60;;
11761;SDS011;5938;47.098;15.474;2022-09-09T15:24:14;2.90;;;2.60;;
11761;SDS011;5938;47.098;15.474;2022-09-09T15:28:20;5.70;;;3.10;;
11761;SDS011;5938;47.098;15.474;2022-09-09T15:32:23;3.67;;;3.47;;
11761;SDS011;5938;47.098;15.474;2022-09-09T15:36:27;3.10;;;2.80;;
11761;SDS011;5938;47.098;15.474;2022-09-09T15:40:33;3.73;;;2.77;;
11761;SDS011;5938;47.098;15.474;2022-09-09T15:44:39;2.60;;;2.40;;
11761;SDS011;5938;47.098;15.474;2022-09-09T15:48:44;3.60;;;2.50;;
11761;SDS011;5938;47.098;15.474;2022-09-09T15:52:51;2.80;;;2.20;;
11761;SDS011;5938;47.098;15.474;2022-09-09T15:56:55;1.80;;;1.70;;
11761;SDS011;5938;47.098;15.474;2022-09-09T16:01:02;2.03;;;1.93;;
11761;SDS011;5938;47.098;15.474;2022-09-09T16:05:06;1.73;;;1.63;;
11761;SDS011;5938;47.098;15.474;2022-09-09T16:09:10;1.70;;;1.60;;
11761;SDS011;5938;47.098;15.474;2022-09-09T16:13:13;2.77;;;2.00;;
11761;SDS011;5938;47.098;15.474;2022-09-09T16:17:18;2.40;;;2.30;;
11761;SDS011;5938;47.098;15.474;2022-09-09T16:21:22;2.70;;;1.97;;
11761;SDS011;5938;47.098;15.474;2022-09-09T16:25:27;2.10;;;1.83;;
11761;SDS011;5938;47.098;15.474;2022-09-09T16:29:30;2.20;;;2.00;;
11761;SDS011;5938;47.098;15.474;2022-09-09T16:33:46;2.27;;;2.07;;
11761;SDS011;5938;47.098;15.474;2022-09-09T16:37:51;2.10;;;2.00;;
11761;SDS011;5938;47.098;15.474;2022-09-09T16:41:55;1.97;;;1.60;;
11761;SDS011;5938;47.098;15.474;2022-09-09T16:45:58;1.83;;;1.73;;
11761;SDS011;5938;47.098;15.474;2022-09-09T16:50:04;4.37;;;1.93;;
11761;SDS011;5938;47.098;15.474;2022-09-09T16:54:09;2.30;;;1.67;;
11761;SDS011;5938;47.098;15.474;2022-09-09T16:58:18;1.90;;;1.80;;
11761;SDS011;5938;47.098;15.474;2022-09-09T17:02:21;5.10;;;2.53;;
11761;SDS011;5938;47.098;15.474;2022-09-09T17:06:29;3.63;;;2.27;;
11761;SDS011;5938;47.098;15.474;2022-09-09T17:10:33;3.33;;;2.87;;
11761;SDS011;5938;47.098;15.474;2022-09-09T17:14:42;3.87;;;2.73;;
11761;SDS011;5938;47.098;15.474;2022-09-09T17:18:47;3.33;;;3.00;;
11761;SDS011;5938;47.098;15.474;2022-09-09T17:22:52;2.90;;;2.33;;
11761;SDS011;5938;47.098;15.474;2022-09-09T17:26:56;2.80;;;2.60;;
11761;SDS011;5938;47.098;15.474;2022-09-09T17:30:59;2.70;;;2.50;;
11761;SDS011;5938;47.098;15.474;2022-09-09T17:35:04;2.13;;;2.00;;
11761;SDS011;5938;47.098;15.474;2022-09-09T17:39:09;3.97;;;2.50;;
11761;SDS011;5938;47.098;15.474;2022-09-09T17:43:13;2.60;;;2.30;;
11761;SDS011;5938;47.098;15.474;2022-09-09T17:47:17;6.10;;;3.10;;
11761;SDS011;5938;47.098;15.474;2022-09-09T17:51:22;2.60;;;2.40;;
11761;SDS011;5938;47.098;15.474;2022-09-09T17:55:30;4.10;;;2.70;;
11761;SDS011;5938;47.098;15.474;2022-09-09T17:59:40;3.27;;;2.77;;
11761;SDS011;5938;47.098;15.474;2022-09-09T18:03:44;2.70;;;2.50;;
11761;SDS011;5938;47.098;15.474;2022-09-09T18:07:50;3.20;;;2.90;;
11761;SDS011;5938;47.098;15.474;2022-09-09T18:11:56;3.17;;;2.87;;
11761;SDS011;5938;47.098;15.474;2022-09-09T18:16:05;3.10;;;2.70;;
11761;SDS011;5938;47.098;15.474;2022-09-09T18:20:12;3.00;;;2.80;;
11761;SDS011;5938;47.098;15.474;2022-09-09T18:24:19;5.00;;;2.87;;
11761;SDS011;5938;47.098;15.474;2022-09-09T18:28:26;3.07;;;2.47;;
11761;SDS011;5938;47.098;15.474;2022-09-09T18:32:29;3.20;;;2.90;;
11761;SDS011;5938;47.098;15.474;2022-09-09T18:36:33;3.20;;;3.00;;
11761;SDS011;5938;47.098;15.474;2022-09-09T18:40:38;3.30;;;3.00;;
11761;SDS011;5938;47.098;15.474;2022-09-09T18:44:43;2.90;;;2.60;;
11761;SDS011;5938;47.098;15.474;2022-09-09T18:48:47;3.40;;;2.90;;
11761;SDS011;5938;47.098;15.474;2022-09-09T18:52:56;3.10;;;2.80;;
11761;SDS011;5938;47.098;15.474;2022-09-09T18:57:00;4.47;;;3.63;;
11761;SDS011;5938;47.098;15.474;2022-09-09T19:01:07;4.47;;;3.67;;
11761;SDS011;5938;47.098;15.474;2022-09-09T19:05:13;4.93;;;3.50;;
11761;SDS011;5938;47.098;15.474;2022-09-09T19:09:17;4.77;;;3.37;;
11761;SDS011;5938;47.098;15.474;2022-09-09T19:13:21;4.43;;;4.03;;
11761;SDS011;5938;47.098;15.474;2022-09-09T19:17:30;3.90;;;3.60;;
11761;SDS011;5938;47.098;15.474;2022-09-09T19:21:38;4.33;;;3.93;;
11761;SDS011;5938;47.098;15.474;2022-09-09T19:25:48;3.37;;;3.10;;
11761;SDS011;5938;47.098;15.474;2022-09-09T19:29:54;4.03;;;3.70;;
11761;SDS011;5938;47.098;15.474;2022-09-09T19:34:04;4.10;;;3.70;;
11761;SDS011;5938;47.098;15.474;2022-09-09T19:38:18;5.23;;;3.97;;
11761;SDS011;5938;47.098;15.474;2022-09-09T19:42:21;4.40;;;3.90;;
11761;SDS011;5938;47.098;15.474;2022-09-09T19:46:28;6.33;;;4.23;;
11761;SDS011;5938;47.098;15.474;2022-09-09T19:50:41;5.87;;;4.00;;
11761;SDS011;5938;47.098;15.474;2022-09-09T19:54:44;4.33;;;3.93;;
11761;SDS011;5938;47.098;15.474;2022-09-09T19:58:48;4.37;;;3.97;;
11761;SDS011;5938;47.098;15.474;2022-09-09T20:02:52;6.10;;;5.50;;
11761;SDS011;5938;47.098;15.474;2022-09-09T20:07:17;6.67;;;4.57;;
11761;SDS011;5938;47.098;15.474;2022-09-09T20:11:23;6.23;;;4.33;;
11761;SDS011;5938;47.098;15.474;2022-09-09T20:15:28;5.20;;;4.50;;
11761;SDS011;5938;47.098;15.474;2022-09-09T20:19:33;7.07;;;5.33;;
11761;SDS011;5938;47.098;15.474;2022-09-09T20:23:45;5.67;;;4.20;;
11761;SDS011;5938;47.098;15.474;2022-09-09T20:27:58;7.03;;;5.00;;
11761;SDS011;5938;47.098;15.474;2022-09-09T20:32:02;11.57;;;5.03;;
11761;SDS011;5938;47.098;15.474;2022-09-09T20:36:11;7.57;;;5.30;;
11761;SDS011;5938;47.098;15.474;2022-09-09T20:40:17;9.40;;;4.57;;
11761;SDS011;5938;47.098;15.474;2022-09-09T20:44:21;8.80;;;4.90;;
11761;SDS011;5938;47.098;15.474;2022-09-09T20:48:25;7.60;;;5.00;;
11761;SDS011;5938;47.098;15.474;2022-09-09T20:52:34;5.53;;;5.00;;
11761;SDS011;5938;47.098;15.474;2022-09-09T20:56:40;6.53;;;4.80;;
11761;SDS011;5938;47.098;15.474;2022-09-09T21:00:45;6.77;;;4.87;;
11761;SDS011;5938;47.098;15.474;2022-09-09T21:04:49;6.53;;;4.87;;
11761;SDS011;5938;47.098;15.474;2022-09-09T21:08:52;5.13;;;4.53;;
11761;SDS011;5938;47.098;15.474;2022-09-09T21:12:57;4.23;;;3.87;;
11761;SDS011;5938;47.098;15.474;2022-09-09T21:17:02;4.03;;;3.73;;
11761;SDS011;5938;47.098;15.474;2022-09-09T21:21:05;4.63;;;4.00;;
11761;SDS011;5938;47.098;15.474;2022-09-09T21:25:09;5.77;;;4.43;;
11761;SDS011;5938;47.098;15.474;2022-09-09T21:29:14;5.87;;;4.33;;
11761;SDS011;5938;47.098;15.474;2022-09-09T21:33:20;8.10;;;4.90;;
11761;SDS011;5938;47.098;15.474;2022-09-09T21:37:25;7.00;;;3.93;;
11761;SDS011;5938;47.098;15.474;2022-09-09T21:41:28;6.00;;;3.77;;
11761;SDS011;5938;47.098;15.474;2022-09-09T21:45:34;5.13;;;4.70;;
11761;SDS011;5938;47.098;15.474;2022-09-09T21:49:38;4.80;;;4.13;;
11761;SDS011;5938;47.098;15.474;2022-09-09T21:53:41;6.97;;;4.20;;
11761;SDS011;5938;47.098;15.474;2022-09-09T21:57:45;4.43;;;3.90;;
11761;SDS011;5938;47.098;15.474;2022-09-09T22:01:49;5.20;;;4.47;;
11761;SDS011;5938;47.098;15.474;2022-09-09T22:05:54;6.17;;;3.73;;
11761;SDS011;5938;47.098;15.474;2022-09-09T22:10:00;4.80;;;4.30;;
11761;SDS011;5938;47.098;15.474;2022-09-09T22:14:03;6.07;;;4.47;;
11761;SDS011;5938;47.098;15.474;2022-09-09T22:18:08;4.80;;;4.37;;
11761;SDS011;5938;47.098;15.474;2022-09-09T22:22:12;4.87;;;4.27;;
11761;SDS011;5938;47.098;15.474;2022-09-09T22:26:15;7.30;;;4.40;;
11761;SDS011;5938;47.098;15.474;2022-09-09T22:30:18;6.90;;;4.87;;
11761;SDS011;5938;47.098;15.474;2022-09-09T22:34:23;6.00;;;5.33;;
11761;SDS011;5938;47.098;15.474;2022-09-09T22:38:35;4.43;;;4.03;;
11761;SDS011;5938;47.098;15.474;2022-09-09T22:42:39;5.37;;;4.90;;
11761;SDS011;5938;47.098;15.474;2022-09-09T22:46:43;4.17;;;3.63;;
11761;SDS011;5938;47.098;15.474;2022-09-09T22:50:49;4.97;;;4.57;;
11761;SDS011;5938;47.098;15.474;2022-09-09T22:54:52;5.93;;;5.03;;
11761;SDS011;5938;47.098;15.474;2022-09-09T22:58:55;5.20;;;4.63;;
11761;SDS011;5938;47.098;15.474;2022-09-09T23:03:00;5.57;;;5.07;;
11761;SDS011;5938;47.098;15.474;2022-09-09T23:07:05;5.23;;;4.80;;
11761;SDS011;5938;47.098;15.474;2022-09-09T23:11:10;8.67;;;5.23;;
11761;SDS011;5938;47.098;15.474;2022-09-09T23:15:14;8.07;;;5.00;;
11761;SDS011;5938;47.098;15.474;2022-09-09T23:19:17;5.60;;;4.90;;
11761;SDS011;5938;47.098;15.474;2022-09-09T23:23:25;5.00;;;4.50;;
11761;SDS011;5938;47.098;15.474;2022-09-09T23:27:29;5.53;;;5.03;;
11761;SDS011;5938;47.098;15.474;2022-09-09T23:31:33;7.53;;;5.70;;
11761;SDS011;5938;47.098;15.474;2022-09-09T23:35:38;9.00;;;6.27;;
11761;SDS011;5938;47.098;15.474;2022-09-09T23:39:44;5.70;;;5.17;;
11761;SDS011;5938;47.098;15.474;2022-09-09T23:43:48;5.93;;;5.43;;
11761;SDS011;5938;47.098;15.474;2022-09-09T23:47:52;5.80;;;5.13;;
11761;SDS011;5938;47.098;15.474;2022-09-09T23:51:56;5.03;;;4.63;;
11761;SDS011;5938;47.098;15.474;2022-09-09T23:56:02;5.93;;;5.37;;
